Overview Statistics Trail Chart Weather Telemetry Raw packets
 

This is the latest recevied weather packets stored in our database for station/object KQ7A. If no packets are shown the sender has not sent any weather packets the latest 10 day(s).

<< 105 106 107 108 109 110 111 >>
Time Temp. Humidity Pressure Rain* Wind** Luminosity Snow
1787887344 21.67° C 29% 1021.5 hPa 0 mm - 0 W/m² -
1787887043 21.67° C 34% 1021.4 hPa 0 mm - 0 W/m² -
1787886739 22.22° C 32% 1021.5 hPa 0 mm - 0 W/m² -
1787886438 22.22° C 30% 1021.2 hPa 0 mm - 0 W/m² -
1787886129 22.78° C 32% 1021.1 hPa 0 mm - 0 W/m² -
1787885828 22.78° C 31% 1020.9 hPa 0 mm - 0 W/m² -
1787885527 22.78° C 32% 1021.1 hPa 0 mm - 0 W/m² -
1787885225 22.78° C 33% 1021.1 hPa 0 mm - 0 W/m² -
1787884925 23.33° C 29% 1021.4 hPa 0 mm - 0 W/m² -
1787884620 23.33° C 29% 1021.3 hPa 0 mm - 0 W/m² -
1787884316 22.78° C 30% 1021.1 hPa 0 mm - 0 W/m² -
1787884011 22.78° C 35% 1020.9 hPa 0 mm - 2 W/m² -
1787883706 23.33° C 34% 1021.1 hPa 0 mm - 3 W/m² -
1787883402 23.89° C 34% 1020.9 hPa 0 mm - 5 W/m² -
1787883101 23.89° C 32% 1021.1 hPa 0 mm - 8 W/m² -
1787882797 23.89° C 34% 1020.9 hPa 0 mm - 12 W/m² -
1787882494 24.44° C 31% 1021.2 hPa 0 mm - 16 W/m² -
1787882189 24.44° C 30% 1021.3 hPa 0 mm - 21 W/m² -
1787881584 24.44° C 30% 1021.3 hPa 0 mm - 32 W/m² -
1787881280 24.44° C 32% 1021.1 hPa 0 mm - 36 W/m² -
1787880975 25° C 30% 1021.1 hPa 0 mm - 42 W/m² -
1787880675 25° C 32% 1021.2 hPa 0 mm - 55 W/m² -
1787880373 25.56° C 29% 1021.2 hPa 0 mm - 65 W/m² -
1787880068 26.67° C 29% 1021.1 hPa 0 mm - 74 W/m² -
1787879763 26.67° C 27% 1021.2 hPa 0 mm - 74 W/m² -

* Rain latest hour (hover to see other rain measurements)
** Current wind speed in m/s (hover to see current wind gust speed)